Back to Top

Language: 

My Weather Underground Personal Weather Station Historical Data with Graphs...

Delerius Weather Station Historical Data
Daily Summary for July 14, 2017 Units:  English    Metric   Both
« Previous Day
Next Day »
Daily Weekly Monthly Yearly Custom
  High: Low: Average:
Temperature: 66.6 °F 55.9 °F 60.1 °F
Dew Point: 54.6 °F 49.2 °F 51.4 °F
Humidity: 87 % 55 % 74 %
Wind Speed: 15.0 mph 0.0 mph 8.5 mph
Wind Gust: 29.0 mph - -
Wind:- - WNW
Pressure: 30.14 in 29.98 in -
Precipitation: 0.00 in    
Historical Graphs
 
 
Tabular Data for July 14, 2017
Time Temperature Dew Point Pressure Wind Wind Speed Wind Gust Humidity Rainfall Rate (Hourly) solar Conditions
00:02 60.8 °F 51.7 °F 29.99 in SW 1.0 mph 11.0 mph 72 % 0.00 in 0 W/m2
00:07 61.0 °F 51.9 °F 29.98 in WSW 3.0 mph 11.0 mph 72 % 0.00 in 0 W/m2
00:12 60.8 °F 51.7 °F 29.98 in West 3.0 mph 10.0 mph 72 % 0.00 in 0 W/m2
00:17 61.0 °F 52.3 °F 29.98 in West 3.0 mph 12.0 mph 73 % 0.00 in 0 W/m2
00:22 61.0 °F 52.3 °F 29.99 in West 6.0 mph 14.0 mph 73 % 0.00 in 0 W/m2
00:27 61.0 °F 52.6 °F 29.98 in West 8.0 mph 14.0 mph 74 % 0.00 in 0 W/m2
00:32 61.0 °F 53.0 °F 29.98 in West 9.0 mph 16.0 mph 75 % 0.00 in 0 W/m2
00:37 60.8 °F 53.5 °F 29.98 in West 11.0 mph 23.0 mph 77 % 0.00 in 0 W/m2
00:42 60.6 °F 54.1 °F 29.98 in West 11.0 mph 23.0 mph 79 % 0.00 in 0 W/m2
00:47 60.3 °F 54.1 °F 29.98 in West 10.0 mph 16.0 mph 80 % 0.00 in 0 W/m2
00:52 60.1 °F 54.6 °F 29.98 in West 9.0 mph 15.0 mph 82 % 0.00 in 0 W/m2
00:57 59.7 °F 54.2 °F 29.99 in West 10.0 mph 21.0 mph 82 % 0.00 in 0 W/m2
01:02 59.5 °F 54.4 °F 29.99 in West 11.0 mph 21.0 mph 83 % 0.00 in 0 W/m2
01:07 59.4 °F 54.5 °F 29.99 in West 9.0 mph 16.0 mph 84 % 0.00 in 0 W/m2
01:08 59.4 °F 54.5 °F 29.99 in West 9.0 mph 16.0 mph 84 % 0.00 in 0 W/m2
01:13 59.0 °F 54.5 °F 29.99 in West 8.0 mph 15.0 mph 85 % 0.00 in 0 W/m2
01:18 58.6 °F 54.5 °F 29.99 in West 8.0 mph 13.0 mph 86 % 0.00 in 0 W/m2
01:23 58.6 °F 54.5 °F 29.99 in West 6.0 mph 13.0 mph 86 % 0.00 in 0 W/m2
01:28 58.5 °F 54.3 °F 29.99 in West 6.0 mph 11.0 mph 86 % 0.00 in 0 W/m2
01:33 58.5 °F 54.6 °F 29.99 in WSW 5.0 mph 9.0 mph 87 % 0.00 in 0 W/m2
01:38 58.5 °F 54.6 °F 29.99 in WSW 4.0 mph 9.0 mph 87 % 0.00 in 0 W/m2
01:43 58.5 °F 54.6 °F 29.99 in West 3.0 mph 6.0 mph 87 % 0.00 in 0 W/m2
01:48 58.5 °F 54.6 °F 29.98 in West 1.0 mph 5.0 mph 87 % 0.00 in 0 W/m2
01:53 58.5 °F 54.6 °F 29.98 in West 1.0 mph 5.0 mph 87 % 0.00 in 0 W/m2
01:58 58.5 °F 54.6 °F 29.98 in West 1.0 mph 4.0 mph 87 % 0.00 in 0 W/m2
02:03 58.5 °F 54.6 °F 29.98 in Calm   4.0 mph 87 % 0.00 in 0 W/m2
02:08 58.5 °F 54.6 °F 29.98 in Calm     87 % 0.00 in 0 W/m2
02:13 58.5 °F 54.6 °F 29.98 in Calm   2.0 mph 87 % 0.00 in 0 W/m2
02:18 58.5 °F 54.6 °F 29.98 in Calm   2.0 mph 87 % 0.00 in 0 W/m2
02:23 58.5 °F 54.3 °F 29.98 in Calm   5.0 mph 86 % 0.00 in 0 W/m2
02:28 58.5 °F 54.6 °F 29.98 in NW 1.0 mph 7.0 mph 87 % 0.00 in 0 W/m2
02:33 58.5 °F 54.6 °F 29.99 in NW 4.0 mph 11.0 mph 87 % 0.00 in 0 W/m2
02:38 58.5 °F 54.6 °F 29.99 in WNW 6.0 mph 11.0 mph 87 % 0.00 in 0 W/m2
02:43 58.3 °F 54.4 °F 29.99 in WNW 6.0 mph 12.0 mph 87 % 0.00 in 0 W/m2
02:48 58.3 °F 53.8 °F 29.99 in WNW 7.0 mph 15.0 mph 85 % 0.00 in 0 W/m2
02:53 57.9 °F 53.1 °F 29.99 in WNW 8.0 mph 15.0 mph 84 % 0.00 in 0 W/m2
02:58 57.9 °F 52.8 °F 29.99 in WNW 8.0 mph 14.0 mph 83 % 0.00 in 0 W/m2
03:03 57.7 °F 52.6 °F 29.99 in WNW 8.0 mph 13.0 mph 83 % 0.00 in 0 W/m2
03:08 57.7 °F 52.6 °F 29.99 in WNW 8.0 mph 15.0 mph 83 % 0.00 in 0 W/m2
03:13 57.6 °F 52.4 °F 29.99 in WNW 8.0 mph 15.0 mph 83 % 0.00 in 0 W/m2
03:18 57.4 °F 52.6 °F 29.99 in WNW 7.0 mph 12.0 mph 84 % 0.00 in 0 W/m2
03:24 57.0 °F 52.2 °F 29.99 in WNW 8.0 mph 13.0 mph 84 % 0.00 in 0 W/m2
03:29 57.0 °F 52.6 °F 29.99 in WNW 8.0 mph 13.0 mph 85 % 0.00 in 0 W/m2
03:34 57.0 °F 52.6 °F 29.98 in WNW 8.0 mph 14.0 mph 85 % 0.00 in 0 W/m2
03:39 56.8 °F 52.4 °F 29.99 in WNW 8.0 mph 14.0 mph 85 % 0.00 in 0 W/m2
03:44 56.8 °F 52.4 °F 29.99 in WNW 8.0 mph 15.0 mph 85 % 0.00 in 0 W/m2
03:49 56.8 °F 52.1 °F 29.99 in WNW 8.0 mph 15.0 mph 84 % 0.00 in 0 W/m2
03:54 56.8 °F 52.1 °F 29.99 in WNW 8.0 mph 12.0 mph 84 % 0.00 in 0 W/m2
03:59 57.0 °F 52.2 °F 29.99 in WNW 8.0 mph 14.0 mph 84 % 0.00 in 0 W/m2
04:04 57.0 °F 52.2 °F 29.99 in WNW 8.0 mph 15.0 mph 84 % 0.00 in 0 W/m2
04:09 57.0 °F 52.2 °F 29.99 in WNW 8.0 mph 15.0 mph 84 % 0.00 in 0 W/m2
04:14 56.8 °F 52.1 °F 29.99 in WNW 8.0 mph 18.0 mph 84 % 0.00 in 0 W/m2
04:19 56.8 °F 52.1 °F 29.99 in WNW 9.0 mph 18.0 mph 84 % 0.00 in 0 W/m2
04:24 56.7 °F 51.9 °F 29.99 in WNW 9.0 mph 16.0 mph 84 % 0.00 in 0 W/m2
04:29 56.7 °F 51.9 °F 30.00 in WNW 9.0 mph 16.0 mph 84 % 0.00 in 0 W/m2
04:34 56.7 °F 51.9 °F 30.00 in WNW 9.0 mph 15.0 mph 84 % 0.00 in 0 W/m2
04:39 56.7 °F 51.9 °F 30.00 in WNW 8.0 mph 14.0 mph 84 % 0.00 in 0 W/m2
04:44 56.7 °F 51.9 °F 30.00 in WNW 8.0 mph 13.0 mph 84 % 0.00 in 0 W/m2
04:49 56.7 °F 51.9 °F 30.00 in WNW 7.0 mph 13.0 mph 84 % 0.00 in 0 W/m2
04:54 56.5 °F 51.7 °F 30.00 in WNW 7.0 mph 13.0 mph 84 % 0.00 in 0 W/m2
04:59 56.5 °F 51.7 °F 30.00 in WNW 7.0 mph 13.0 mph 84 % 0.00 in 0 W/m2
05:04 56.5 °F 51.7 °F 30.00 in WNW 8.0 mph 14.0 mph 84 % 0.00 in 5 W/m2
05:09 56.5 °F 51.7 °F 30.00 in WNW 8.0 mph 14.0 mph 84 % 0.00 in 7 W/m2
05:14 56.5 °F 51.7 °F 30.01 in WNW 7.0 mph 12.0 mph 84 % 0.00 in 7 W/m2
05:19 56.5 °F 51.7 °F 30.01 in WNW 8.0 mph 14.0 mph 84 % 0.00 in 9 W/m2
05:24 56.5 °F 51.7 °F 30.01 in WNW 8.0 mph 14.0 mph 84 % 0.00 in 9 W/m2
05:29 56.5 °F 51.7 °F 30.01 in WNW 6.0 mph 12.0 mph 84 % 0.00 in 9 W/m2
05:34 56.5 °F 51.7 °F 30.01 in WNW 5.0 mph 10.0 mph 84 % 0.00 in 9 W/m2
05:39 56.7 °F 52.2 °F 30.01 in WNW 6.0 mph 10.0 mph 85 % 0.00 in 11 W/m2
05:44 56.5 °F 52.0 °F 30.01 in WNW 6.0 mph 10.0 mph 85 % 0.00 in 12 W/m2
05:49 56.5 °F 52.3 °F 30.01 in WNW 6.0 mph 10.0 mph 86 % 0.00 in 12 W/m2
05:54 56.3 °F 52.2 °F 30.01 in WNW 4.0 mph 9.0 mph 86 % 0.00 in 12 W/m2
05:59 56.3 °F 52.2 °F 30.02 in WNW 4.0 mph 9.0 mph 86 % 0.00 in 11 W/m2
06:04 56.3 °F 52.2 °F 30.02 in WNW 4.0 mph 9.0 mph 86 % 0.00 in 14 W/m2
06:09 56.3 °F 52.2 °F 30.02 in NW 2.0 mph 6.0 mph 86 % 0.00 in 19 W/m2
06:14 56.1 °F 52.0 °F 30.01 in NNW 3.0 mph 6.0 mph 86 % 0.00 in 18 W/m2
06:19 56.1 °F 52.0 °F 30.01 in NNW 2.0 mph 6.0 mph 86 % 0.00 in 25 W/m2
06:24 56.1 °F 52.0 °F 30.01 in WNW 3.0 mph 6.0 mph 86 % 0.00 in 35 W/m2
06:30 56.1 °F 52.0 °F 30.01 in WNW 2.0 mph 6.0 mph 86 % 0.00 in 53 W/m2
06:35 56.1 °F 52.0 °F 30.01 in WNW 2.0 mph 10.0 mph 86 % 0.00 in 74 W/m2
06:40 56.5 °F 52.3 °F 30.01 in WNW 4.0 mph 10.0 mph 86 % 0.00 in 56 W/m2
06:45 56.5 °F 52.0 °F 30.01 in WNW 4.0 mph 9.0 mph 85 % 0.00 in 58 W/m2
06:50 56.7 °F 51.9 °F 30.01 in WNW 5.0 mph 9.0 mph 84 % 0.00 in 58 W/m2
06:55 56.7 °F 51.6 °F 30.01 in WNW 5.0 mph 12.0 mph 83 % 0.00 in 69 W/m2
07:00 56.8 °F 51.7 °F 30.01 in WNW 7.0 mph 15.0 mph 83 % 0.00 in 76 W/m2
07:05 56.8 °F 51.4 °F 30.01 in WNW 8.0 mph 15.0 mph 82 % 0.00 in 74 W/m2
07:10 57.0 °F 51.6 °F 30.01 in WNW 8.0 mph 16.0 mph 82 % 0.00 in 70 W/m2
07:15 57.0 °F 51.6 °F 30.02 in WNW 9.0 mph 16.0 mph 82 % 0.00 in 44 W/m2
07:20 56.8 °F 52.1 °F 30.02 in WNW 9.0 mph 15.0 mph 84 % 0.00 in 40 W/m2
07:25 56.7 °F 52.2 °F 30.03 in WNW 8.0 mph 14.0 mph 85 % 0.00 in 88 W/m2
07:30 56.3 °F 52.2 °F 30.03 in WNW 9.0 mph 18.0 mph 86 % 0.00 in 113 W/m2
07:35 55.9 °F 51.8 °F 30.02 in NW 8.0 mph 18.0 mph 86 % 0.00 in 109 W/m2
07:40 55.9 °F 51.8 °F 30.02 in NW 6.0 mph 14.0 mph 86 % 0.00 in 118 W/m2
07:45 55.9 °F 51.8 °F 30.02 in WNW 6.0 mph 12.0 mph 86 % 0.00 in 120 W/m2
07:50 55.9 °F 51.8 °F 30.03 in WNW 7.0 mph 12.0 mph 86 % 0.00 in 139 W/m2
07:55 56.1 °F 51.7 °F 30.03 in WNW 6.0 mph 11.0 mph 85 % 0.00 in 213 W/m2
08:00 56.5 °F 52.0 °F 30.03 in WNW 7.0 mph 15.0 mph 85 % 0.00 in 146 W/m2
08:05 56.7 °F 51.9 °F 30.03 in WNW 8.0 mph 15.0 mph 84 % 0.00 in 160 W/m2
08:10 56.8 °F 51.7 °F 30.03 in WNW 9.0 mph 20.0 mph 83 % 0.00 in 193 W/m2
08:15 57.0 °F 51.6 °F 30.03 in WNW 10.0 mph 20.0 mph 82 % 0.00 in 218 W/m2
08:20 57.2 °F 51.4 °F 30.03 in WNW 11.0 mph 20.0 mph 81 % 0.00 in 250 W/m2
08:25 57.4 °F 51.3 °F 30.03 in WNW 11.0 mph 20.0 mph 80 % 0.00 in 190 W/m2
08:30 57.6 °F 51.1 °F 30.03 in WNW 11.0 mph 20.0 mph 79 % 0.00 in 257 W/m2
08:35 57.9 °F 51.4 °F 30.03 in WNW 10.0 mph 16.0 mph 79 % 0.00 in 285 W/m2
08:40 58.3 °F 51.8 °F 30.03 in WNW 9.0 mph 16.0 mph 79 % 0.00 in 341 W/m2
08:45 58.8 °F 51.6 °F 30.03 in WNW 8.0 mph 14.0 mph 77 % 0.00 in 237 W/m2
08:50 59.2 °F 51.6 °F 30.04 in NW 8.0 mph 15.0 mph 76 % 0.00 in 251 W/m2
08:55 59.2 °F 51.3 °F 30.04 in NW 9.0 mph 16.0 mph 75 % 0.00 in 278 W/m2
09:00 59.4 °F 51.4 °F 30.04 in WNW 10.0 mph 16.0 mph 75 % 0.00 in 229 W/m2
09:05 59.4 °F 51.4 °F 30.04 in WNW 9.0 mph 18.0 mph 75 % 0.00 in 218 W/m2
09:10 59.4 °F 51.1 °F 30.04 in WNW 9.0 mph 18.0 mph 74 % 0.00 in 218 W/m2
09:15 59.4 °F 51.1 °F 30.04 in WNW 10.0 mph 19.0 mph 74 % 0.00 in 278 W/m2
09:20 59.5 °F 50.9 °F 30.04 in WNW 10.0 mph 19.0 mph 73 % 0.00 in 401 W/m2
09:25 59.7 °F 51.0 °F 30.04 in WNW 10.0 mph 18.0 mph 73 % 0.00 in 288 W/m2
09:30 60.3 °F 51.2 °F 30.04 in WNW 9.0 mph 16.0 mph 72 % 0.00 in 181 W/m2
09:35 60.1 °F 50.6 °F 30.05 in WNW 10.0 mph 20.0 mph 71 % 0.00 in 185 W/m2
09:40 59.7 °F 50.7 °F 30.05 in WNW 11.0 mph 20.0 mph 72 % 0.00 in 167 W/m2
09:45 59.5 °F 50.9 °F 30.05 in WNW 10.0 mph 18.0 mph 73 % 0.00 in 221 W/m2
09:50 59.5 °F 51.2 °F 30.05 in West 10.0 mph 16.0 mph 74 % 0.00 in 211 W/m2
09:55 59.5 °F 51.2 °F 30.05 in West 9.0 mph 16.0 mph 74 % 0.00 in 225 W/m2
10:00 59.5 °F 51.2 °F 30.05 in WNW 9.0 mph 14.0 mph 74 % 0.00 in 251 W/m2
10:05 59.5 °F 51.2 °F 30.05 in WNW 10.0 mph 19.0 mph 74 % 0.00 in 271 W/m2
10:10 59.5 °F 50.9 °F 30.05 in WNW 12.0 mph 20.0 mph 73 % 0.00 in 383 W/m2
10:15 59.9 °F 50.8 °F 30.05 in WNW 12.0 mph 20.0 mph 72 % 0.00 in 469 W/m2
10:20 60.3 °F 50.4 °F 30.05 in WNW 13.0 mph 24.0 mph 70 % 0.00 in 285 W/m2
10:25 60.3 °F 50.8 °F 30.06 in WNW 13.0 mph 24.0 mph 71 % 0.00 in 320 W/m2
10:30 60.3 °F 50.8 °F 30.06 in WNW 13.0 mph 22.0 mph 71 % 0.00 in 295 W/m2
10:32 60.1 °F 50.6 °F 30.06 in WNW 13.0 mph 22.0 mph 71 % 0.00 in 283 W/m2
10:37 60.1 °F 50.6 °F 30.06 in WNW 12.0 mph 21.0 mph 71 % 0.00 in 294 W/m2
10:42 60.1 °F 50.6 °F 30.06 in WNW 11.0 mph 21.0 mph 71 % 0.00 in 288 W/m2
10:47 60.1 °F 51.0 °F 30.06 in WNW 11.0 mph 21.0 mph 72 % 0.00 in 329 W/m2
10:52 60.3 °F 51.2 °F 30.06 in WNW 10.0 mph 18.0 mph 72 % 0.00 in 501 W/m2
10:57 60.6 °F 51.5 °F 30.06 in WNW 9.0 mph 15.0 mph 72 % 0.00 in 390 W/m2
11:02 61.0 °F 51.5 °F 30.06 in WNW 8.0 mph 16.0 mph 71 % 0.00 in 299 W/m2
11:07 61.0 °F 51.1 °F 30.06 in WNW 10.0 mph 19.0 mph 70 % 0.00 in 381 W/m2
11:12 61.3 °F 51.9 °F 30.07 in WNW 10.0 mph 19.0 mph 71 % 0.00 in 441 W/m2
11:17 61.7 °F 51.8 °F 30.07 in WNW 8.0 mph 15.0 mph 70 % 0.00 in 399 W/m2
11:19 61.7 °F 51.0 °F 30.06 in WNW 9.0 mph 16.0 mph 68 % 0.00 in 404 W/m2
11:24 62.1 °F 51.4 °F 30.07 in WNW 10.0 mph 21.0 mph 68 % 0.00 in 443 W/m2
11:29 62.1 °F 51.0 °F 30.07 in WNW 11.0 mph 21.0 mph 67 % 0.00 in 376 W/m2
11:34 62.1 °F 50.6 °F 30.07 in WNW 12.0 mph 21.0 mph 66 % 0.00 in 332 W/m2
11:39 62.1 °F 51.0 °F 30.07 in WNW 12.0 mph 21.0 mph 67 % 0.00 in 264 W/m2
11:44 61.7 °F 50.2 °F 30.07 in WNW 13.0 mph 25.0 mph 66 % 0.00 in 237 W/m2
11:49 61.3 °F 49.9 °F 30.07 in WNW 13.0 mph 25.0 mph 66 % 0.00 in 229 W/m2
11:54 61.0 °F 49.9 °F 30.07 in WNW 12.0 mph 21.0 mph 67 % 0.00 in 288 W/m2
11:59 61.0 °F 50.3 °F 30.07 in WNW 11.0 mph 21.0 mph 68 % 0.00 in 218 W/m2
12:04 61.0 °F 50.3 °F 30.08 in WNW 10.0 mph 18.0 mph 68 % 0.00 in 179 W/m2
12:07 61.0 °F 49.9 °F 30.08 in WNW 11.0 mph 22.0 mph 67 % 0.00 in 183 W/m2
12:12 60.4 °F 49.8 °F 30.08 in WNW 13.0 mph 25.0 mph 68 % 0.00 in 185 W/m2
12:17 60.3 °F 50.0 °F 30.08 in WNW 12.0 mph 25.0 mph 69 % 0.00 in 348 W/m2
12:22 60.4 °F 50.2 °F 30.08 in WNW 10.0 mph 20.0 mph 69 % 0.00 in 348 W/m2
12:27 60.8 °F 50.2 °F 30.08 in WNW 10.0 mph 20.0 mph 68 % 0.00 in 332 W/m2
12:33 61.2 °F 50.5 °F 30.08 in WNW 10.0 mph 16.0 mph 68 % 0.00 in 329 W/m2
12:38 61.3 °F 50.3 °F 30.08 in WNW 10.0 mph 18.0 mph 67 % 0.00 in 315 W/m2
12:43 61.7 °F 50.2 °F 30.08 in WNW 11.0 mph 21.0 mph 66 % 0.00 in 411 W/m2
12:48 62.1 °F 50.6 °F 30.08 in WNW 12.0 mph 22.0 mph 66 % 0.00 in 543 W/m2
12:53 62.4 °F 50.5 °F 30.08 in WNW 12.0 mph 22.0 mph 65 % 0.00 in 626 W/m2
12:58 63.1 °F 51.2 °F 30.08 in WNW 11.0 mph 20.0 mph 65 % 0.00 in 443 W/m2
13:03 63.7 °F 50.8 °F 30.09 in WNW 11.0 mph 26.0 mph 63 % 0.00 in 527 W/m2
13:08 63.5 °F 49.4 °F 30.09 in WNW 14.0 mph 26.0 mph 60 % 0.00 in 524 W/m2
13:13 63.3 °F 49.2 °F 30.09 in WNW 14.0 mph 26.0 mph 60 % 0.00 in 404 W/m2
13:18 63.3 °F 50.1 °F 30.09 in WNW 13.0 mph 23.0 mph 62 % 0.00 in 432 W/m2
13:23 63.3 °F 50.5 °F 30.09 in WNW 11.0 mph 21.0 mph 63 % 0.00 in 432 W/m2
13:28 63.3 °F 50.9 °F 30.09 in WNW 11.0 mph 22.0 mph 64 % 0.00 in 394 W/m2
13:33 63.3 °F 51.8 °F 30.09 in WNW 12.0 mph 22.0 mph 66 % 0.00 in 432 W/m2
13:38 64.0 °F 51.2 °F 30.09 in WNW 11.0 mph 20.0 mph 63 % 0.00 in 1218 W/m2
13:43 64.6 °F 50.8 °F 30.09 in WNW 13.0 mph 23.0 mph 61 % 0.00 in 580 W/m2
13:48 64.6 °F 50.4 °F 30.09 in WNW 13.0 mph 23.0 mph 60 % 0.00 in 443 W/m2
13:53 64.0 °F 50.3 °F 30.09 in WNW 12.0 mph 21.0 mph 61 % 0.00 in 390 W/m2
13:58 64.0 °F 50.3 °F 30.09 in WNW 12.0 mph 22.0 mph 61 % 0.00 in 323 W/m2
14:03 63.9 °F 50.6 °F 30.10 in WNW 11.0 mph 22.0 mph 62 % 0.00 in 244 W/m2
14:08 63.7 °F 50.4 °F 30.10 in WNW 10.0 mph 22.0 mph 62 % 0.00 in 200 W/m2
14:13 63.1 °F 50.8 °F 30.10 in West 10.0 mph 18.0 mph 64 % 0.00 in 195 W/m2
14:18 63.0 °F 51.4 °F 30.10 in WNW 10.0 mph 19.0 mph 66 % 0.00 in 408 W/m2
14:23 63.1 °F 51.6 °F 30.10 in WNW 10.0 mph 19.0 mph 66 % 0.00 in 345 W/m2
14:28 63.1 °F 51.2 °F 30.10 in WNW 11.0 mph 20.0 mph 65 % 0.00 in 123 W/m2
14:33 62.8 °F 51.2 °F 30.10 in WNW 12.0 mph 23.0 mph 66 % 0.00 in 204 W/m2
14:38 62.2 °F 51.5 °F 30.10 in WNW 11.0 mph 23.0 mph 68 % 0.00 in 329 W/m2
14:43 62.6 °F 51.9 °F 30.10 in WNW 10.0 mph 19.0 mph 68 % 0.00 in 378 W/m2
14:48 63.0 °F 51.8 °F 30.10 in WNW 9.0 mph 16.0 mph 67 % 0.00 in 492 W/m2
14:53 63.5 °F 51.9 °F 30.10 in WNW 10.0 mph 24.0 mph 66 % 0.00 in 353 W/m2
14:58 63.7 °F 51.3 °F 30.10 in WNW 12.0 mph 24.0 mph 64 % 0.00 in 429 W/m2
14:59 63.7 °F 51.3 °F 30.10 in WNW 13.0 mph 24.0 mph 64 % 0.00 in 429 W/m2
15:04 64.0 °F 51.2 °F 30.10 in WNW 12.0 mph 22.0 mph 63 % 0.00 in 378 W/m2
15:09 64.0 °F 51.2 °F 30.10 in WNW 11.0 mph 21.0 mph 63 % 0.00 in 315 W/m2
15:14 63.9 °F 50.6 °F 30.10 in WNW 13.0 mph 24.0 mph 62 % 0.00 in 265 W/m2
15:19 63.7 °F 50.4 °F 30.10 in WNW 14.0 mph 24.0 mph 62 % 0.00 in 329 W/m2
15:24 63.5 °F 50.7 °F 30.10 in WNW 14.0 mph 24.0 mph 63 % 0.00 in 884 W/m2
15:29 64.2 °F 51.4 °F 30.10 in WNW 13.0 mph 23.0 mph 63 % 0.00 in 875 W/m2
15:34 65.1 °F 50.9 °F 30.10 in West 12.0 mph 21.0 mph 60 % 0.00 in 805 W/m2
15:39 65.5 °F 50.8 °F 30.10 in West 12.0 mph 23.0 mph 59 % 0.00 in 796 W/m2
15:44 65.8 °F 51.1 °F 30.10 in WNW 13.0 mph 23.0 mph 59 % 0.00 in 784 W/m2
15:49 66.0 °F 50.8 °F 30.10 in WNW 14.0 mph 25.0 mph 58 % 0.00 in 773 W/m2
15:54 65.8 °F 51.1 °F 30.10 in West 14.0 mph 25.0 mph 59 % 0.00 in 816 W/m2
15:59 65.7 °F 51.4 °F 30.10 in West 14.0 mph 24.0 mph 60 % 0.00 in 759 W/m2
16:04 65.5 °F 51.2 °F 30.10 in West 15.0 mph 24.0 mph 60 % 0.00 in 756 W/m2
16:09 65.5 °F 51.2 °F 30.10 in West 15.0 mph 24.0 mph 60 % 0.00 in 747 W/m2
16:14 65.7 °F 50.9 °F 30.10 in West 14.0 mph 29.0 mph 59 % 0.00 in 724 W/m2
16:19 65.8 °F 51.1 °F 30.10 in WNW 14.0 mph 29.0 mph 59 % 0.00 in 708 W/m2
16:24 66.0 °F 51.3 °F 30.10 in WNW 12.0 mph 23.0 mph 59 % 0.00 in 708 W/m2
16:29 66.2 °F 51.0 °F 30.10 in West 12.0 mph 21.0 mph 58 % 0.00 in 715 W/m2
16:34 66.0 °F 50.8 °F 30.10 in West 13.0 mph 21.0 mph 58 % 0.00 in 742 W/m2
16:39 66.2 °F 50.0 °F 30.10 in West 13.0 mph 23.0 mph 56 % 0.00 in 679 W/m2
16:44 66.4 °F 51.2 °F 30.10 in WNW 13.0 mph 23.0 mph 58 % 0.00 in 591 W/m2
16:49 66.4 °F 49.7 °F 30.10 in WNW 13.0 mph 23.0 mph 55 % 0.00 in 598 W/m2
16:54 66.6 °F 50.8 °F 30.10 in WNW 13.0 mph 23.0 mph 57 % 0.00 in 533 W/m2
16:59 66.6 °F 50.4 °F 30.10 in WNW 13.0 mph 24.0 mph 56 % 0.00 in 573 W/m2
17:04 66.2 °F 50.5 °F 30.10 in WNW 14.0 mph 24.0 mph 57 % 0.00 in 515 W/m2
17:09 65.8 °F 50.6 °F 30.10 in WNW 14.0 mph 23.0 mph 58 % 0.00 in 566 W/m2
17:14 65.8 °F 51.1 °F 30.10 in WNW 13.0 mph 21.0 mph 59 % 0.00 in 545 W/m2
17:19 65.8 °F 51.1 °F 30.10 in WNW 12.0 mph 21.0 mph 59 % 0.00 in 541 W/m2
17:24 65.8 °F 51.1 °F 30.10 in WNW 12.0 mph 22.0 mph 59 % 0.00 in 499 W/m2
17:29 65.8 °F 51.1 °F 30.10 in WNW 12.0 mph 22.0 mph 59 % 0.00 in 512 W/m2
17:35 65.8 °F 51.1 °F 30.10 in West 12.0 mph 22.0 mph 59 % 0.00 in 496 W/m2
17:40 65.7 °F 50.9 °F 30.10 in WNW 13.0 mph 21.0 mph 59 % 0.00 in 483 W/m2
17:45 65.7 °F 50.9 °F 30.10 in WNW 14.0 mph 23.0 mph 59 % 0.00 in 473 W/m2
17:50 65.1 °F 50.9 °F 30.10 in WNW 15.0 mph 23.0 mph 60 % 0.00 in 466 W/m2
17:55 64.9 °F 51.6 °F 30.10 in WNW 13.0 mph 22.0 mph 62 % 0.00 in 445 W/m2
18:00 64.9 °F 50.7 °F 30.10 in WNW 13.0 mph 23.0 mph 60 % 0.00 in 396 W/m2
18:05 64.9 °F 50.7 °F 30.10 in WNW 13.0 mph 23.0 mph 60 % 0.00 in 315 W/m2
18:10 64.9 °F 51.2 °F 30.10 in WNW 12.0 mph 22.0 mph 61 % 0.00 in 281 W/m2
18:15 64.9 °F 51.2 °F 30.10 in WNW 10.0 mph 16.0 mph 61 % 0.00 in 355 W/m2
18:20 64.9 °F 51.2 °F 30.10 in WNW 11.0 mph 18.0 mph 61 % 0.00 in 454 W/m2
18:25 65.1 °F 50.4 °F 30.10 in West 12.0 mph 23.0 mph 59 % 0.00 in 422 W/m2
18:30 64.8 °F 50.5 °F 30.11 in West 12.0 mph 23.0 mph 60 % 0.00 in 316 W/m2
18:35 64.6 °F 50.4 °F 30.11 in West 10.0 mph 20.0 mph 60 % 0.00 in 156 W/m2
18:40 64.2 °F 49.6 °F 30.11 in WNW 9.0 mph 18.0 mph 59 % 0.00 in 128 W/m2
18:45 63.7 °F 49.5 °F 30.11 in WNW 11.0 mph 20.0 mph 60 % 0.00 in 146 W/m2
18:50 63.1 °F 49.5 °F 30.10 in WNW 12.0 mph 20.0 mph 61 % 0.00 in 158 W/m2
18:55 63.0 °F 50.2 °F 30.11 in WNW 11.0 mph 22.0 mph 63 % 0.00 in 125 W/m2
18:56 63.0 °F 50.2 °F 30.11 in WNW 11.0 mph 22.0 mph 63 % 0.00 in 120 W/m2
19:01 62.8 °F 50.0 °F 30.11 in WNW 10.0 mph 22.0 mph 63 % 0.00 in 113 W/m2
19:06 62.4 °F 50.1 °F 30.11 in WNW 10.0 mph 18.0 mph 64 % 0.00 in 105 W/m2
19:11 62.2 °F 50.3 °F 30.11 in West 10.0 mph 18.0 mph 65 % 0.00 in 100 W/m2
19:14 62.1 °F 50.6 °F 30.11 in West 10.0 mph 18.0 mph 66 % 0.00 in 95 W/m2
19:19 61.9 °F 50.4 °F 30.10 in West 9.0 mph 16.0 mph 66 % 0.00 in 90 W/m2
19:24 61.7 °F 50.2 °F 30.10 in West 10.0 mph 16.0 mph 66 % 0.00 in 81 W/m2
19:29 61.5 °F 50.1 °F 30.11 in West 9.0 mph 16.0 mph 66 % 0.00 in 77 W/m2
19:34 61.3 °F 49.9 °F 30.11 in West 9.0 mph 15.0 mph 66 % 0.00 in 72 W/m2
19:39 61.3 °F 50.3 °F 30.11 in West 9.0 mph 15.0 mph 67 % 0.00 in 54 W/m2
19:44 61.2 °F 50.1 °F 30.11 in West 8.0 mph 14.0 mph 67 % 0.00 in 46 W/m2
19:49 61.0 °F 49.9 °F 30.11 in WNW 8.0 mph 14.0 mph 67 % 0.00 in 40 W/m2
19:54 61.0 °F 49.9 °F 30.11 in WNW 9.0 mph 15.0 mph 67 % 0.00 in 39 W/m2
19:59 60.8 °F 49.8 °F 30.11 in West 9.0 mph 15.0 mph 67 % 0.00 in 39 W/m2
20:04 60.6 °F 50.0 °F 30.11 in West 8.0 mph 14.0 mph 68 % 0.00 in 33 W/m2
20:09 60.6 °F 50.0 °F 30.12 in West 6.0 mph 10.0 mph 68 % 0.00 in 33 W/m2
20:14 60.4 °F 49.8 °F 30.12 in West 6.0 mph 13.0 mph 68 % 0.00 in 32 W/m2
20:19 60.4 °F 49.8 °F 30.11 in West 6.0 mph 13.0 mph 68 % 0.00 in 25 W/m2
20:24 60.3 °F 49.7 °F 30.11 in West 8.0 mph 13.0 mph 68 % 0.00 in 19 W/m2
20:29 60.3 °F 49.7 °F 30.11 in WNW 8.0 mph 13.0 mph 68 % 0.00 in 19 W/m2
20:35 60.1 °F 49.9 °F 30.12 in West 7.0 mph 15.0 mph 69 % 0.00 in 12 W/m2
20:39 60.1 °F 49.9 °F 30.12 in West 7.0 mph 15.0 mph 69 % 0.00 in 11 W/m2
20:45 59.7 °F 49.5 °F 30.12 in West 6.0 mph 11.0 mph 69 % 0.00 in 9 W/m2
20:50 59.7 °F 49.9 °F 30.12 in West 7.0 mph 13.0 mph 70 % 0.00 in 7 W/m2
20:55 59.5 °F 49.7 °F 30.13 in West 9.0 mph 14.0 mph 70 % 0.00 in 0 W/m2
21:00 59.5 °F 49.7 °F 30.13 in West 7.0 mph 14.0 mph 70 % 0.00 in 0 W/m2
21:05 59.4 °F 50.0 °F 30.13 in WNW 7.0 mph 13.0 mph 71 % 0.00 in 0 W/m2
21:06 59.4 °F 50.0 °F 30.13 in WNW 7.0 mph 13.0 mph 71 % 0.00 in 0 W/m2
21:11 59.4 °F 50.0 °F 30.13 in WNW 8.0 mph 15.0 mph 71 % 0.00 in 0 W/m2
21:16 59.2 °F 49.8 °F 30.13 in WNW 8.0 mph 16.0 mph 71 % 0.00 in 0 W/m2
21:21 59.0 °F 50.0 °F 30.13 in West 8.0 mph 16.0 mph 72 % 0.00 in 0 W/m2
21:26 59.0 °F 50.4 °F 30.13 in West 6.0 mph 12.0 mph 73 % 0.00 in 0 W/m2
21:31 58.8 °F 50.9 °F 30.13 in WNW 5.0 mph 9.0 mph 75 % 0.00 in 0 W/m2
21:36 58.6 °F 51.1 °F 30.13 in WNW 5.0 mph 9.0 mph 76 % 0.00 in 0 W/m2
21:41 58.5 °F 50.9 °F 30.13 in West 5.0 mph 9.0 mph 76 % 0.00 in 0 W/m2
21:46 58.3 °F 51.1 °F 30.13 in West 4.0 mph 7.0 mph 77 % 0.00 in 0 W/m2
21:51 57.9 °F 50.8 °F 30.13 in WNW 4.0 mph 8.0 mph 77 % 0.00 in 0 W/m2
21:56 57.7 °F 50.6 °F 30.13 in WNW 5.0 mph 8.0 mph 77 % 0.00 in 0 W/m2
22:01 57.6 °F 50.8 °F 30.13 in West 6.0 mph 8.0 mph 78 % 0.00 in 0 W/m2
22:06 57.6 °F 50.8 °F 30.13 in West 5.0 mph 8.0 mph 78 % 0.00 in 0 W/m2
22:11 57.4 °F 50.6 °F 30.13 in West 5.0 mph 8.0 mph 78 % 0.00 in 0 W/m2
22:16 57.4 °F 50.6 °F 30.13 in West 5.0 mph 8.0 mph 78 % 0.00 in 0 W/m2
22:21 57.2 °F 50.7 °F 30.13 in West 5.0 mph 8.0 mph 79 % 0.00 in 0 W/m2
22:26 57.0 °F 50.6 °F 30.13 in West 4.0 mph 7.0 mph 79 % 0.00 in 0 W/m2
22:31 57.0 °F 50.6 °F 30.13 in WSW 4.0 mph 8.0 mph 79 % 0.00 in 0 W/m2
22:36 57.0 °F 50.9 °F 30.13 in WSW 5.0 mph 8.0 mph 80 % 0.00 in 0 W/m2
22:41 56.8 °F 51.1 °F 30.13 in West 4.0 mph 8.0 mph 81 % 0.00 in 0 W/m2
22:46 56.8 °F 51.1 °F 30.13 in West 4.0 mph 7.0 mph 81 % 0.00 in 0 W/m2
22:51 56.7 °F 51.2 °F 30.13 in West 4.0 mph 7.0 mph 82 % 0.00 in 0 W/m2
22:56 56.5 °F 51.1 °F 30.13 in West 4.0 mph 7.0 mph 82 % 0.00 in 0 W/m2
23:01 56.3 °F 50.9 °F 30.14 in West 3.0 mph 7.0 mph 82 % 0.00 in 0 W/m2
23:06 56.3 °F 51.5 °F 30.13 in West 1.0 mph 6.0 mph 84 % 0.00 in 0 W/m2
23:11 56.1 °F 51.4 °F 30.13 in Calm   2.0 mph 84 % 0.00 in 0 W/m2
23:13 56.1 °F 51.4 °F 30.13 in Calm   2.0 mph 84 % 0.00 in 0 W/m2
23:18 56.1 °F 51.4 °F 30.14 in Calm   3.0 mph 84 % 0.00 in 0 W/m2
23:23 56.1 °F 51.4 °F 30.13 in West 1.0 mph 5.0 mph 84 % 0.00 in 0 W/m2
23:28 55.9 °F 51.2 °F 30.13 in West 3.0 mph 6.0 mph 84 % 0.00 in 0 W/m2
23:33 55.9 °F 51.2 °F 30.13 in West 3.0 mph 6.0 mph 84 % 0.00 in 0 W/m2
23:38 55.9 °F 51.5 °F 30.13 in West 2.0 mph 5.0 mph 85 % 0.00 in 0 W/m2
23:43 55.9 °F 51.5 °F 30.13 in West 1.0 mph 5.0 mph 85 % 0.00 in 0 W/m2
23:48 55.9 °F 51.5 °F 30.13 in West 1.0 mph 4.0 mph 85 % 0.00 in 0 W/m2
23:53 55.9 °F 51.5 °F 30.13 in Calm   3.0 mph 85 % 0.00 in 0 W/m2
23:58 55.9 °F 51.5 °F 30.13 in Calm   3.0 mph 85 % 0.00 in 0 W/m2
Delerius-Weather
Compliments of Weather Underground - 2.25 mb

Data updates at regular intervals.